Time;durP1;ratioP1;P1;durP2;ratioP2;P2;SDS_P1;SDS_P2;PMS_P1;PMS_P2;Temp;Humidity;BMP_temperature;BMP_pressure;BME280_temperature;BME280_humidity;BME280_pressure;Samples;Min_cycle;Max_cycle;Signal;HPM_P1;HPM_P2
2022/01/13 00:00:31;;;;;;;110.03;32.47;;;4.40;99.90;;;;;;5071600;28;19911;-84
2022/01/13 00:02:57;;;;;;;122.47;35.15;;;4.40;99.90;;;;;;5071488;28;20086;-84
2022/01/13 00:05:30;;;;;;;119.15;34.83;;;4.40;99.90;;;;;;5054911;28;20052;-84
2022/01/13 00:07:57;;;;;;;106.25;32.08;;;4.30;99.90;;;;;;5072509;28;20033;-84
2022/01/13 00:10:24;;;;;;;115.10;34.17;;;4.30;99.90;;;;;;5055154;28;20419;-84
2022/01/13 00:12:57;;;;;;;95.88;31.80;;;4.30;99.90;;;;;;5072513;28;20477;-84
2022/01/13 00:15:39;;;;;;;116.60;33.90;;;4.30;99.90;;;;;;5071537;28;20063;-84
2022/01/13 00:18:12;;;;;;;116.75;29.90;;;4.20;99.90;;;;;;5091407;28;20056;-84
2022/01/13 00:26:18;;;;;;;100.65;29.20;;;4.20;99.90;;;;;;5093002;28;20127;-84
2022/01/13 00:28:46;;;;;;;123.68;32.17;;;4.30;99.90;;;;;;5092841;28;20111;-84
2022/01/13 00:31:12;;;;;;;107.22;30.65;;;4.30;99.90;;;;;;5074773;28;20075;-84
2022/01/13 00:33:43;;;;;;;112.07;30.65;;;4.20;99.90;;;;;;5058155;28;20064;-84
2022/01/13 00:36:09;;;;;;;107.25;31.02;;;4.30;99.90;;;;;;5043375;28;20443;-84
2022/01/13 00:38:35;;;;;;;112.78;33.40;;;4.20;99.90;;;;;;5075102;28;20040;-84
2022/01/13 00:41:01;;;;;;;98.18;30.67;;;4.30;99.90;;;;;;5076277;28;20064;-84
2022/01/13 00:43:27;;;;;;;119.40;32.45;;;4.20;99.90;;;;;;5061997;28;20040;-84
2022/01/13 00:45:52;;;;;;;101.82;29.58;;;4.20;99.90;;;;;;5061653;28;20036;-84
2022/01/13 00:48:18;;;;;;;110.95;32.13;;;4.20;99.90;;;;;;5061699;28;20417;-84
2022/01/13 00:50:44;;;;;;;114.03;31.95;;;4.20;99.90;;;;;;5078368;28;20028;-84
2022/01/13 00:53:10;;;;;;;113.00;32.08;;;4.20;99.90;;;;;;5078264;28;20040;-84
2022/01/13 00:55:49;;;;;;;126.53;33.60;;;4.20;99.90;;;;;;5061486;28;20477;-84
2022/01/13 00:58:16;;;;;;;112.95;30.73;;;4.20;99.90;;;;;;5048472;28;20089;-84
2022/01/13 01:00:43;;;;;;;119.55;31.48;;;4.20;99.90;;;;;;5096337;28;20036;-84
2022/01/13 01:03:09;;;;;;;96.85;28.98;;;4.20;99.90;;;;;;5061447;28;20040;-84
2022/01/13 01:05:35;;;;;;;111.93;29.83;;;4.20;99.90;;;;;;5078035;28;20541;-84
2022/01/13 01:08:04;;;;;;;112.13;31.95;;;4.20;99.90;;;;;;5077524;28;20081;-84
2022/01/13 01:10:30;;;;;;;122.20;32.25;;;4.20;99.90;;;;;;5061496;28;20490;-85
2022/01/13 01:12:55;;;;;;;107.28;30.85;;;4.30;99.90;;;;;;5061460;28;20066;-85
2022/01/13 01:15:21;;;;;;;121.90;33.38;;;4.20;99.90;;;;;;5044697;28;20044;-84
2022/01/13 01:17:53;;;;;;;115.13;31.83;;;4.30;99.90;;;;;;5096092;28;20173;-84
2022/01/13 01:20:20;;;;;;;132.98;32.17;;;4.30;99.90;;;;;;5077724;28;20051;-84
2022/01/13 01:25:43;;;;;;;112.13;30.85;;;4.20;99.90;;;;;;5078926;28;20119;-84
2022/01/13 01:28:12;;;;;;;119.63;31.23;;;4.30;99.90;;;;;;5080384;28;20488;-84
2022/01/13 01:30:42;;;;;;;99.22;28.75;;;4.20;99.90;;;;;;5062117;28;20033;-83
2022/01/13 01:33:10;;;;;;;96.22;27.70;;;4.30;99.90;;;;;;5061234;28;20086;-84
2022/01/13 01:35:38;;;;;;;113.78;29.08;;;4.30;99.90;;;;;;5061209;28;20040;-84
2022/01/13 01:38:04;;;;;;;100.55;28.25;;;4.30;99.90;;;;;;5061076;28;20040;-84
2022/01/13 01:40:29;;;;;;;129.85;32.50;;;4.30;99.90;;;;;;5079063;28;20040;-84
2022/01/13 01:42:55;;;;;;;105.20;30.60;;;4.30;99.90;;;;;;5079975;28;20395;-84
2022/01/13 01:45:21;;;;;;;117.13;30.30;;;4.30;99.90;;;;;;5087798;28;20063;-84
2022/01/13 01:47:51;;;;;;;109.75;29.20;;;4.20;99.90;;;;;;5083678;28;20057;-84
2022/01/13 01:50:18;;;;;;;168.80;33.55;;;4.20;99.90;;;;;;5079041;28;20114;-83
2022/01/13 01:52:53;;;;;;;123.45;28.83;;;4.20;99.90;;;;;;5080148;28;20036;-84
2022/01/13 01:55:20;;;;;;;130.43;30.23;;;4.30;99.90;;;;;;5100716;28;20107;-84
2022/01/13 01:57:48;;;;;;;140.43;31.70;;;4.20;99.90;;;;;;5061742;28;20042;-84
2022/01/13 02:00:16;;;;;;;130.38;30.70;;;4.30;99.90;;;;;;5077058;28;20047;-84
2022/01/13 02:02:43;;;;;;;119.05;29.85;;;4.30;99.90;;;;;;5077146;28;20085;-84
2022/01/13 02:05:09;;;;;;;126.75;28.23;;;4.30;99.90;;;;;;5077136;28;20464;-84
2022/01/13 02:07:35;;;;;;;142.75;31.50;;;4.30;99.90;;;;;;5060764;28;20039;-84
2022/01/13 02:10:01;;;;;;;132.32;30.65;;;4.30;99.90;;;;;;5060350;28;20036;-84
2022/01/13 02:12:42;;;;;;;136.60;31.75;;;4.30;99.90;;;;;;5077141;28;20039;-84
2022/01/13 02:17:38;;;;;;;134.45;30.38;;;4.30;99.90;;;;;;5076669;28;20036;-84
2022/01/13 02:20:08;;;;;;;115.13;28.55;;;4.30;99.90;;;;;;5094835;28;20055;-84
2022/01/13 02:22:34;;;;;;;106.55;27.65;;;4.30;99.90;;;;;;5095025;28;20074;-83
2022/01/13 02:25:00;;;;;;;89.63;26.27;;;4.30;99.90;;;;;;5076430;28;20032;-84
2022/01/13 02:27:26;;;;;;;111.88;26.98;;;4.20;99.90;;;;;;5076725;28;20138;-84
2022/01/13 02:29:51;;;;;;;115.20;27.70;;;4.30;99.90;;;;;;5059913;28;20114;-84
2022/01/13 02:32:19;;;;;;;92.28;26.38;;;4.30;99.90;;;;;;5059670;28;20051;-83
2022/01/13 02:34:45;;;;;;;102.80;26.58;;;4.30;99.90;;;;;;5076237;28;20068;-84
2022/01/13 02:37:11;;;;;;;89.07;26.02;;;4.30;99.90;;;;;;5076146;28;20509;-84
2022/01/13 02:39:37;;;;;;;95.70;27.10;;;4.30;99.90;;;;;;5094486;28;20039;-83
2022/01/13 02:42:14;;;;;;;114.68;27.08;;;4.30;99.90;;;;;;5094477;28;20036;-84
2022/01/13 02:45:04;;;;;;;104.70;27.02;;;4.30;99.90;;;;;;5063683;28;20044;-84
2022/01/13 02:48:25;;;;;;;112.57;24.40;;;4.30;99.90;;;;;;5078899;28;20036;-83
2022/01/13 02:50:25;;;;;;;99.95;23.73;;;4.30;99.90;;;;;;5089523;28;20121;-84
2022/01/13 02:52:51;;;;;;;94.85;23.92;;;4.30;99.90;;;;;;5059454;28;20028;-84
2022/01/13 02:55:16;;;;;;;98.50;25.77;;;4.30;99.90;;;;;;5042546;28;20566;-84
2022/01/13 02:57:42;;;;;;;98.05;25.00;;;4.30;99.90;;;;;;5059424;28;20036;-83
2022/01/13 03:00:09;;;;;;;66.28;22.33;;;4.30;99.90;;;;;;5094019;28;20036;-83
2022/01/13 03:02:34;;;;;;;110.40;25.27;;;4.20;99.90;;;;;;5091698;28;20115;-84
2022/01/13 03:05:01;;;;;;;93.80;23.30;;;4.20;99.90;;;;;;5055913;28;20482;-84
2022/01/13 03:07:30;;;;;;;88.95;22.63;;;4.20;99.90;;;;;;5039094;28;20039;-83
2022/01/13 03:09:56;;;;;;;97.68;23.73;;;4.20;99.90;;;;;;5073957;28;20457;-84
2022/01/13 03:12:24;;;;;;;92.85;24.70;;;4.20;99.90;;;;;;5022296;28;20043;-84
2022/01/13 03:14:50;;;;;;;66.40;19.95;;;4.20;99.90;;;;;;5039340;28;20118;-84
2022/01/13 03:17:16;;;;;;;89.63;24.58;;;4.20;99.90;;;;;;5022506;28;20569;-84
2022/01/13 03:19:42;;;;;;;90.30;21.65;;;4.10;99.90;;;;;;5050080;28;20179;-84
2022/01/13 03:22:08;;;;;;;77.78;21.63;;;4.10;99.90;;;;;;5071999;28;20182;-84
2022/01/13 03:24:33;;;;;;;58.92;18.73;;;4.10;99.90;;;;;;5072325;28;20400;-83
2022/01/13 03:27:02;;;;;;;78.78;21.80;;;4.10;99.90;;;;;;5055543;28;20056;-84
2022/01/13 03:29:29;;;;;;;84.10;20.92;;;4.10;99.90;;;;;;5072195;28;20503;-84
2022/01/13 03:31:55;;;;;;;96.15;22.98;;;4.10;99.90;;;;;;5072038;28;20025;-84
2022/01/13 03:34:20;;;;;;;133.07;22.23;;;4.10;99.90;;;;;;5055027;28;20039;-84
2022/01/13 03:36:46;;;;;;;80.57;21.58;;;4.10;99.90;;;;;;5072112;28;20044;-83
2022/01/13 03:39:15;;;;;;;91.97;21.95;;;4.10;99.90;;;;;;5071925;28;20469;-84
2022/01/13 03:41:41;;;;;;;74.50;21.10;;;4.10;99.90;;;;;;5055228;28;20075;-84
2022/01/13 03:44:16;;;;;;;71.70;18.42;;;4.10;99.90;;;;;;5055149;28;20072;-85
2022/01/13 03:46:42;;;;;;;88.20;20.20;;;4.10;99.90;;;;;;5072063;28;20035;-84
2022/01/13 03:49:08;;;;;;;83.90;21.25;;;4.10;99.90;;;;;;5054866;28;20033;-90
2022/01/13 03:51:55;;;;;;;57.72;18.60;;;4.10;99.90;;;;;;5072158;28;20473;-84
2022/01/13 03:54:35;;;;;;;58.05;18.05;;;4.00;99.90;;;;;;5072841;28;20032;-84
2022/01/13 03:57:39;;;;;;;102.65;20.75;;;4.00;99.90;;;;;;5073262;28;20037;-84
2022/01/13 04:00:34;;;;;;;65.57;18.42;;;4.00;99.90;;;;;;4975025;28;20142;-84
2022/01/13 04:02:59;;;;;;;99.07;21.98;;;4.00;99.90;;;;;;5054911;28;20488;-84
2022/01/13 04:05:25;;;;;;;71.07;20.00;;;4.00;99.90;;;;;;5071603;28;20070;-84
2022/01/13 04:07:51;;;;;;;86.93;20.52;;;4.00;99.90;;;;;;5072125;28;20037;-84
2022/01/13 04:10:38;;;;;;;95.57;20.70;;;4.00;99.90;;;;;;5054834;28;20123;-85
2022/01/13 04:13:11;;;;;;;90.25;22.13;;;4.00;99.90;;;;;;5073010;28;20534;-84
2022/01/13 04:15:46;;;;;;;77.97;20.05;;;4.00;99.90;;;;;;5056234;28;20473;-84
2022/01/13 04:18:11;;;;;;;102.43;22.63;;;4.00;99.90;;;;;;5058526;28;20427;-89
2022/01/13 04:20:37;;;;;;;84.00;20.48;;;3.90;99.90;;;;;;5059035;28;20080;-84
2022/01/13 04:23:03;;;;;;;66.13;21.38;;;3.90;99.90;;;;;;5042282;28;20397;-84
2022/01/13 04:25:31;;;;;;;65.13;20.55;;;4.00;99.90;;;;;;5025292;28;20036;-84
2022/01/13 04:28:01;;;;;;;61.45;20.08;;;3.90;99.90;;;;;;5042421;28;20060;-84
2022/01/13 04:31:01;;;;;;;82.38;20.38;;;3.90;99.90;;;;;;5042856;28;20106;-84
2022/01/13 04:33:20;;;;;;;90.22;19.30;;;3.90;99.90;;;;;;5060193;28;20119;-84
2022/01/13 04:35:47;;;;;;;70.45;19.55;;;3.80;99.90;;;;;;5025196;28;20127;-85
2022/01/13 04:38:12;;;;;;;95.97;20.52;;;3.80;99.90;;;;;;5076711;28;20043;-84
2022/01/13 04:40:44;;;;;;;75.10;18.95;;;3.80;99.90;;;;;;5076026;28;20037;-84
2022/01/13 04:43:11;;;;;;;70.93;18.25;;;3.80;99.90;;;;;;5027168;28;20481;-84
2022/01/13 04:45:37;;;;;;;115.22;21.70;;;3.70;99.90;;;;;;5041900;28;20128;-84
2022/01/13 04:48:02;;;;;;;90.65;19.08;;;3.70;99.90;;;;;;5058201;28;20539;-84
2022/01/13 04:50:28;;;;;;;78.60;19.25;;;3.80;99.90;;;;;;5025091;28;20039;-84
2022/01/13 04:52:54;;;;;;;88.88;20.95;;;3.80;99.90;;;;;;5041536;28;20032;-84
2022/01/13 04:55:29;;;;;;;87.10;21.05;;;3.80;99.90;;;;;;5076066;28;20051;-84
2022/01/13 04:57:55;;;;;;;70.57;18.40;;;3.90;99.90;;;;;;5075213;28;20498;-84
2022/01/13 05:00:22;;;;;;;73.80;17.58;;;3.80;99.90;;;;;;5058343;28;20166;-84
2022/01/13 05:02:48;;;;;;;67.53;18.77;;;3.80;99.90;;;;;;5058678;28;20086;-84
2022/01/13 05:05:14;;;;;;;55.38;16.35;;;3.80;99.90;;;;;;5058446;28;20044;-84
2022/01/13 05:07:40;;;;;;;80.95;20.55;;;3.80;99.90;;;;;;5041550;28;20389;-84
2022/01/13 05:10:06;;;;;;;86.90;21.30;;;3.80;99.90;;;;;;5076438;28;20036;-84
2022/01/13 05:12:43;;;;;;;90.95;18.45;;;3.80;99.90;;;;;;5075992;28;20112;-84
2022/01/13 05:15:18;;;;;;;66.05;18.45;;;3.80;99.90;;;;;;5028014;28;20064;-84
2022/01/13 05:20:21;;;;;;;60.90;16.92;;;3.70;99.90;;;;;;5069358;28;20132;-84
2022/01/13 05:22:48;;;;;;;69.03;17.38;;;3.70;99.90;;;;;;5055443;28;20037;-84
2022/01/13 05:25:15;;;;;;;40.97;14.85;;;3.70;99.90;;;;;;5056807;28;20049;-84
2022/01/13 05:27:41;;;;;;;77.90;17.73;;;3.70;99.90;;;;;;5039430;28;20047;-84
2022/01/13 05:30:08;;;;;;;71.68;18.35;;;3.70;99.90;;;;;;5045856;28;20064;-84
2022/01/13 05:32:33;;;;;;;64.25;17.23;;;3.70;99.90;;;;;;5058536;28;20044;-84
2022/01/13 05:35:00;;;;;;;61.22;16.65;;;3.80;99.90;;;;;;5055877;28;20119;-84
2022/01/13 05:37:26;;;;;;;66.60;17.40;;;3.70;99.90;;;;;;5041254;28;20090;-84
2022/01/13 05:39:52;;;;;;;82.88;17.30;;;3.70;99.90;;;;;;5066203;28;20036;-84
2022/01/13 05:42:18;;;;;;;72.90;17.23;;;3.70;99.90;;;;;;5058747;28;20033;-84
2022/01/13 05:44:44;;;;;;;70.00;15.50;;;3.70;99.90;;;;;;5057573;28;20044;-84
2022/01/13 05:47:11;;;;;;;50.53;15.38;;;3.70;99.90;;;;;;5041097;28;20036;-84
2022/01/13 05:49:40;;;;;;;68.82;17.85;;;3.80;99.90;;;;;;5057537;28;20037;-84
2022/01/13 05:52:06;;;;;;;39.97;14.55;;;3.70;99.90;;;;;;5057786;28;20033;-84
2022/01/13 05:54:32;;;;;;;55.88;15.10;;;3.70;99.90;;;;;;5074028;28;20048;-84
2022/01/13 05:56:58;;;;;;;94.93;17.23;;;3.70;99.90;;;;;;5090598;28;20029;-84
2022/01/13 05:59:24;;;;;;;52.47;15.38;;;3.70;99.90;;;;;;5075035;28;20033;-84
2022/01/13 06:01:50;;;;;;;54.25;15.45;;;3.70;99.90;;;;;;5055827;28;20037;-84
2022/01/13 06:04:16;;;;;;;75.03;17.60;;;3.70;99.90;;;;;;5071892;28;20040;-84
2022/01/13 06:06:42;;;;;;;43.70;15.40;;;3.70;99.90;;;;;;5056881;28;20037;-86
2022/01/13 06:09:07;;;;;;;55.60;15.07;;;3.70;99.90;;;;;;5075125;28;20040;-84
2022/01/13 06:11:39;;;;;;;55.50;14.80;;;3.60;99.90;;;;;;5040113;28;20047;-84
2022/01/13 06:14:04;;;;;;;68.78;15.85;;;3.60;99.90;;;;;;5073481;28;20362;-84
2022/01/13 06:16:30;;;;;;;62.00;16.08;;;3.60;99.90;;;;;;5056858;28;20041;-84
2022/01/13 06:18:56;;;;;;;66.55;15.95;;;3.60;99.90;;;;;;5065144;28;20052;-84
2022/01/13 06:21:22;;;;;;;76.35;16.23;;;3.60;99.90;;;;;;5077074;28;20461;-84
2022/01/13 06:23:47;;;;;;;70.57;16.02;;;3.60;99.90;;;;;;5094294;28;20036;-84
2022/01/13 06:26:13;;;;;;;60.22;16.35;;;3.60;99.90;;;;;;5060161;28;20044;-84
2022/01/13 06:28:39;;;;;;;51.47;14.30;;;3.60;99.90;;;;;;5094853;28;20039;-85
2022/01/13 06:31:05;;;;;;;54.22;15.93;;;3.60;99.90;;;;;;5076560;28;20044;-85
2022/01/13 06:33:31;;;;;;;59.88;16.90;;;3.60;99.90;;;;;;5059620;28;20042;-84
2022/01/13 06:35:56;;;;;;;52.05;13.77;;;3.60;99.90;;;;;;5075576;28;20115;-84
2022/01/13 06:38:23;;;;;;;68.20;15.98;;;3.60;99.90;;;;;;5094254;28;20040;-84
2022/01/13 06:40:50;;;;;;;56.28;15.60;;;3.60;99.90;;;;;;5094323;28;20036;-84
2022/01/13 06:43:16;;;;;;;73.75;14.77;;;3.60;99.90;;;;;;5076282;28;20032;-84
2022/01/13 06:45:42;;;;;;;63.25;16.23;;;3.60;99.90;;;;;;5093860;28;20119;-84
2022/01/13 06:48:08;;;;;;;50.17;15.35;;;3.60;99.90;;;;;;5076093;28;20536;-84
2022/01/13 06:50:35;;;;;;;41.13;13.38;;;3.60;99.90;;;;;;5093830;28;20040;-85
2022/01/13 06:53:00;;;;;;;57.47;15.05;;;3.60;99.90;;;;;;5059404;28;20067;-84
2022/01/13 06:55:27;;;;;;;60.72;16.60;;;3.60;99.90;;;;;;5059463;28;20068;-84
2022/01/13 06:57:53;;;;;;;51.55;16.60;;;3.60;99.90;;;;;;5093854;28;20032;-83
2022/01/13 07:00:20;;;;;;;43.45;14.27;;;3.60;99.90;;;;;;5076277;28;20043;-83
2022/01/13 07:02:46;;;;;;;44.95;14.95;;;3.60;99.90;;;;;;5074745;28;20033;-84
2022/01/13 07:05:12;;;;;;;63.22;16.33;;;3.60;99.90;;;;;;5057565;28;20182;-84
2022/01/13 07:07:39;;;;;;;57.38;16.13;;;3.60;99.90;;;;;;5074784;28;20142;-82
2022/01/13 07:10:10;;;;;;;62.90;17.08;;;3.60;99.90;;;;;;5075725;28;20472;-84
2022/01/13 07:12:36;;;;;;;67.20;15.90;;;3.60;99.90;;;;;;5058727;28;20035;-84
2022/01/13 07:15:02;;;;;;;63.75;17.15;;;3.60;99.90;;;;;;5073617;28;20134;-84
2022/01/13 07:17:28;;;;;;;58.17;16.35;;;3.60;99.90;;;;;;5057514;28;20495;-84
2022/01/13 07:19:54;;;;;;;44.38;14.35;;;3.60;99.90;;;;;;5055229;28;20107;-83
2022/01/13 07:22:20;;;;;;;51.40;16.48;;;3.60;99.90;;;;;;5072305;28;20037;-84
2022/01/13 07:24:46;;;;;;;37.35;15.02;;;3.60;99.90;;;;;;5071991;28;20107;-84
2022/01/13 07:27:12;;;;;;;87.03;18.67;;;3.70;99.90;;;;;;5055232;28;20406;-84
2022/01/13 07:29:42;;;;;;;71.75;18.33;;;3.70;99.90;;;;;;5055301;28;20431;-84
2022/01/13 07:32:12;;;;;;;52.45;15.50;;;3.70;99.90;;;;;;5072032;28;20036;-84
2022/01/13 07:34:38;;;;;;;75.47;17.65;;;3.70;99.90;;;;;;5055232;28;20064;-85
2022/01/13 07:37:04;;;;;;;63.83;16.15;;;3.70;99.90;;;;;;5063109;28;20579;-83
2022/01/13 07:39:31;;;;;;;73.00;17.80;;;3.70;99.90;;;;;;5035529;28;20091;-85
2022/01/13 07:41:56;;;;;;;57.40;16.95;;;3.80;99.90;;;;;;5035474;28;20059;-85
2022/01/13 07:44:22;;;;;;;84.55;17.98;;;3.80;99.90;;;;;;5053336;28;20111;-87
2022/01/13 07:46:48;;;;;;;62.65;17.42;;;3.80;99.90;;;;;;5040933;28;20128;-86
2022/01/13 07:49:14;;;;;;;55.45;16.67;;;3.80;99.90;;;;;;5053429;28;20032;-87
2022/01/13 07:51:40;;;;;;;51.55;17.73;;;3.80;99.90;;;;;;5051453;28;20069;-84
2022/01/13 07:54:06;;;;;;;52.95;16.45;;;3.80;99.90;;;;;;5051568;28;20521;-84
2022/01/13 07:56:32;;;;;;;64.03;17.75;;;3.80;99.90;;;;;;5051659;28;20141;-83
2022/01/13 07:58:58;;;;;;;72.55;17.50;;;3.80;99.90;;;;;;5053263;28;20107;-83
2022/01/13 08:01:24;;;;;;;65.45;16.42;;;3.80;99.90;;;;;;5034961;28;20489;-84
2022/01/13 08:03:49;;;;;;;55.72;15.88;;;3.80;99.90;;;;;;5051228;28;20091;-84
2022/01/13 08:06:15;;;;;;;59.33;16.42;;;3.90;99.90;;;;;;5034993;28;20485;-84
2022/01/13 08:08:41;;;;;;;64.93;17.38;;;3.90;99.90;;;;;;5051581;28;20120;-91
2022/01/13 08:11:08;;;;;;;87.60;17.50;;;3.80;99.90;;;;;;5035095;28;20118;-83
2022/01/13 08:13:35;;;;;;;55.17;14.77;;;3.80;99.90;;;;;;5052541;28;20033;-84
2022/01/13 08:16:06;;;;;;;57.60;14.77;;;3.80;99.90;;;;;;5051277;28;20041;-83
2022/01/13 08:21:16;;;;;;;44.17;14.55;;;3.80;99.90;;;;;;5057404;28;20140;-84
2022/01/13 08:23:42;;;;;;;48.55;12.98;;;3.80;99.90;;;;;;5038381;28;20465;-85
2022/01/13 08:26:08;;;;;;;50.35;15.02;;;3.80;99.90;;;;;;5055015;28;20477;-83
2022/01/13 08:28:33;;;;;;;49.45;14.85;;;3.90;99.90;;;;;;5054894;28;20106;-84
2022/01/13 08:30:59;;;;;;;55.80;14.88;;;3.80;99.90;;;;;;5021590;28;20408;-84
2022/01/13 08:33:25;;;;;;;52.63;13.38;;;3.80;99.90;;;;;;5054580;28;20029;-84
2022/01/13 08:35:53;;;;;;;61.70;15.40;;;3.90;99.90;;;;;;5037888;28;20098;-84
2022/01/13 08:38:19;;;;;;;45.45;14.00;;;3.90;99.90;;;;;;5072373;28;20033;-84
2022/01/13 08:40:53;;;;;;;51.05;14.55;;;3.90;99.90;;;;;;5072391;28;20033;-86
2022/01/13 08:43:19;;;;;;;43.83;13.52;;;3.80;99.90;;;;;;5054843;28;20029;-86
2022/01/13 08:45:46;;;;;;;45.47;13.93;;;3.90;99.90;;;;;;5037962;28;20156;-87
2022/01/13 08:48:12;;;;;;;47.53;14.82;;;3.90;99.90;;;;;;5038003;28;20071;-86
2022/01/13 08:50:38;;;;;;;42.25;14.63;;;3.80;99.90;;;;;;5054902;28;20116;-85
2022/01/13 08:53:05;;;;;;;44.78;13.02;;;3.90;99.90;;;;;;5054442;28;20041;-84
2022/01/13 08:55:31;;;;;;;44.50;13.90;;;3.90;99.90;;;;;;5072533;28;20170;-84
2022/01/13 08:57:57;;;;;;;51.20;13.52;;;3.80;99.90;;;;;;5037828;28;20064;-84
2022/01/13 09:00:22;;;;;;;31.02;11.63;;;3.80;99.90;;;;;;5054030;28;20040;-84
2022/01/13 09:02:48;;;;;;;40.00;14.15;;;3.80;99.90;;;;;;5039260;28;20040;-83
2022/01/13 09:05:18;;;;;;;36.38;12.15;;;3.80;99.90;;;;;;5041754;28;20037;-83
2022/01/13 09:07:44;;;;;;;49.25;14.20;;;3.80;99.90;;;;;;5059719;28;20036;-83
2022/01/13 09:10:12;;;;;;;37.08;12.40;;;3.80;99.90;;;;;;5059727;28;20087;-84
2022/01/13 09:12:38;;;;;;;32.42;11.48;;;3.80;99.90;;;;;;5044366;28;20128;-83
2022/01/13 09:15:16;;;;;;;29.90;11.50;;;3.80;99.90;;;;;;5049855;28;20099;-83
2022/01/13 09:17:44;;;;;;;40.50;13.32;;;3.70;99.90;;;;;;5047890;28;20033;-84
2022/01/13 09:20:11;;;;;;;46.13;15.05;;;3.80;99.90;;;;;;5079362;28;20048;-83
2022/01/13 09:22:37;;;;;;;48.97;13.88;;;3.80;99.90;;;;;;5082240;28;20032;-84
2022/01/13 09:25:03;;;;;;;55.17;14.85;;;3.80;99.90;;;;;;5063749;28;20047;-83
2022/01/13 09:27:29;;;;;;;37.45;13.13;;;3.80;99.90;;;;;;5061822;28;20085;-83
2022/01/13 09:29:55;;;;;;;47.17;14.00;;;3.80;99.90;;;;;;5094958;28;20115;-87
2022/01/13 09:32:22;;;;;;;47.88;14.65;;;3.80;99.90;;;;;;5076864;28;20032;-84
2022/01/13 09:34:47;;;;;;;41.97;14.27;;;3.80;99.90;;;;;;5067111;28;20497;-83
2022/01/13 09:37:13;;;;;;;45.58;13.60;;;3.80;99.90;;;;;;5060197;28;20094;-84
2022/01/13 09:39:39;;;;;;;36.85;14.23;;;3.90;99.90;;;;;;5068760;28;20036;-83
2022/01/13 09:42:07;;;;;;;45.05;14.23;;;3.80;99.90;;;;;;5060710;28;20418;-84
2022/01/13 09:44:33;;;;;;;43.10;13.82;;;3.90;99.90;;;;;;5095496;28;20090;-84
2022/01/13 09:46:59;;;;;;;37.90;13.63;;;3.90;99.90;;;;;;5057865;28;20039;-84
2022/01/13 09:49:25;;;;;;;34.28;13.25;;;3.90;99.90;;;;;;5071155;28;20028;-84
2022/01/13 09:51:51;;;;;;;51.58;14.32;;;3.90;99.90;;;;;;5058931;28;20028;-85
2022/01/13 09:54:17;;;;;;;47.65;14.35;;;3.90;99.90;;;;;;5075338;28;20043;-84
2022/01/13 09:56:42;;;;;;;47.30;14.75;;;3.90;99.90;;;;;;5076741;28;20032;-84
2022/01/13 09:59:08;;;;;;;34.08;12.80;;;3.90;99.90;;;;;;5094110;28;20372;-84
2022/01/13 10:01:34;;;;;;;39.60;13.73;;;3.90;99.90;;;;;;5076151;28;20032;-86
2022/01/13 10:04:00;;;;;;;47.47;14.15;;;3.90;99.90;;;;;;5059667;28;20120;-84
2022/01/13 10:06:26;;;;;;;41.55;13.70;;;3.90;99.90;;;;;;5060172;28;20118;-83
2022/01/13 10:08:52;;;;;;;30.15;12.00;;;3.90;99.90;;;;;;5094952;28;20173;-83
2022/01/13 10:11:35;;;;;;;42.15;13.73;;;3.90;99.90;;;;;;5094869;28;20037;-85
2022/01/13 10:14:14;;;;;;;40.00;13.82;;;4.00;99.90;;;;;;5076052;28;20060;-83
2022/01/13 10:16:45;;;;;;;42.45;13.40;;;4.00;99.90;;;;;;5094937;28;20032;-84
2022/01/13 10:19:42;;;;;;;39.83;14.00;;;3.90;99.90;;;;;;5094569;28;20098;-84
2022/01/13 10:22:18;;;;;;;39.05;14.82;;;4.00;99.90;;;;;;5093261;28;20476;-84
2022/01/13 10:24:49;;;;;;;34.72;12.77;;;4.00;99.90;;;;;;5094909;28;20035;-83
2022/01/13 10:27:19;;;;;;;;;;;4.00;99.90;;;;;;5095066;28;20472;-83
2022/01/13 10:29:49;;;;;;;37.40;13.68;;;4.00;99.90;;;;;;5076464;28;19954;-84
2022/01/13 10:32:26;;;;;;;39.33;13.50;;;4.00;99.90;;;;;;5076249;28;20032;-84
2022/01/13 10:35:22;;;;;;;41.10;13.90;;;4.00;99.90;;;;;;5076573;28;20052;-84
2022/01/13 10:37:53;;;;;;;47.28;15.32;;;4.00;99.90;;;;;;5071382;28;20040;-85
2022/01/13 10:40:25;;;;;;;51.00;14.32;;;4.00;99.90;;;;;;5092858;28;20047;-84
2022/01/13 10:45:30;;;;;;;50.03;15.80;;;4.10;99.90;;;;;;5076139;28;20036;-83
2022/01/13 10:48:12;;;;;;;53.13;16.92;;;4.20;99.90;;;;;;5076160;28;20031;-84
2022/01/13 10:50:50;;;;;;;45.45;13.95;;;4.20;99.90;;;;;;5094234;28;20060;-83
2022/01/13 10:53:19;;;;;;;45.45;15.40;;;4.20;99.90;;;;;;5075928;28;20059;-85
2022/01/13 10:56:04;;;;;;;47.55;15.95;;;4.20;99.90;;;;;;5072645;28;20043;-84
2022/01/13 10:58:49;;;;;;;55.53;16.88;;;4.20;99.90;;;;;;5093664;28;20476;-83
2022/01/13 11:01:15;;;;;;;44.33;15.25;;;4.20;99.90;;;;;;5093513;28;20028;-84
2022/01/13 11:03:43;;;;;;;47.50;16.42;;;4.20;99.90;;;;;;5093964;28;20112;-83
2022/01/13 11:06:10;;;;;;;42.30;14.80;;;4.20;99.90;;;;;;5058992;28;20040;-84
2022/01/13 11:08:41;;;;;;;34.35;14.43;;;4.30;99.90;;;;;;5093870;28;20116;-83
2022/01/13 11:11:15;;;;;;;56.25;16.58;;;4.20;99.90;;;;;;5093779;28;20028;-84
2022/01/13 11:13:53;;;;;;;45.88;15.23;;;4.20;99.90;;;;;;5077001;28;20060;-84
2022/01/13 11:16:23;;;;;;;37.65;14.10;;;4.20;99.90;;;;;;5075694;28;20059;-83
2022/01/13 11:18:50;;;;;;;53.85;15.65;;;4.20;99.90;;;;;;5092896;28;20047;-84
2022/01/13 11:21:15;;;;;;;44.38;16.02;;;4.20;99.90;;;;;;5075635;28;20036;-85
2022/01/13 11:23:45;;;;;;;61.97;17.20;;;4.20;99.90;;;;;;5059070;28;20040;-83
2022/01/13 11:26:13;;;;;;;58.63;16.35;;;4.20;99.90;;;;;;5074443;28;20361;-83
2022/01/13 11:28:39;;;;;;;51.88;15.52;;;4.30;99.90;;;;;;5094541;28;20043;-84
2022/01/13 11:31:08;;;;;;;42.95;15.32;;;4.20;99.90;;;;;;5092973;28;20025;-84
2022/01/13 11:33:36;;;;;;;32.13;13.48;;;4.20;99.90;;;;;;5069180;28;20074;-84
2022/01/13 11:36:03;;;;;;;38.40;15.25;;;4.20;99.90;;;;;;5089944;28;20028;-84
2022/01/13 11:38:30;;;;;;;42.92;15.60;;;4.20;99.90;;;;;;5075181;28;20028;-84
2022/01/13 11:41:09;;;;;;;56.35;16.92;;;4.20;99.90;;;;;;5058145;28;20365;-84
2022/01/13 11:43:42;;;;;;;44.70;16.02;;;4.30;99.90;;;;;;5058533;28;20059;-85
2022/01/13 11:46:21;;;;;;;41.05;15.00;;;4.30;99.90;;;;;;5074653;28;20114;-86
2022/01/13 11:49:20;;;;;;;32.72;13.77;;;4.30;99.90;;;;;;5092850;28;20074;-84
2022/01/13 11:51:57;;;;;;;39.80;15.77;;;4.30;99.90;;;;;;5071957;28;20028;-89
2022/01/13 11:54:28;;;;;;;44.88;14.75;;;4.30;99.90;;;;;;5089618;28;20035;-86
2022/01/13 11:57:27;;;;;;;45.88;15.75;;;4.30;99.90;;;;;;5091715;28;20493;-83
2022/01/13 11:59:56;;;;;;;54.50;15.77;;;4.30;99.90;;;;;;5058869;28;20117;-83
2022/01/13 12:02:27;;;;;;;39.22;14.68;;;4.30;99.90;;;;;;5074914;28;20037;-84
2022/01/13 12:05:16;;;;;;;45.00;15.20;;;4.30;99.90;;;;;;5058661;28;20048;-84
2022/01/13 12:08:02;;;;;;;47.75;16.88;;;4.30;99.90;;;;;;5093235;28;20031;-84
2022/01/13 12:10:37;;;;;;;46.65;14.68;;;4.30;99.90;;;;;;5074918;28;20025;-84
2022/01/13 12:13:28;;;;;;;37.20;14.88;;;4.20;99.90;;;;;;5074944;28;20198;-84
2022/01/13 12:15:54;;;;;;;49.20;15.17;;;4.30;99.90;;;;;;5074985;28;20071;-84
2022/01/13 12:18:51;;;;;;;60.70;16.70;;;4.30;99.90;;;;;;5057643;28;20321;-84
2022/01/13 12:21:34;;;;;;;53.90;16.88;;;4.30;99.90;;;;;;5061897;28;20051;-91
2022/01/13 12:24:00;;;;;;;42.95;13.88;;;4.30;99.90;;;;;;5089257;28;20119;-84
2022/01/13 12:26:32;;;;;;;44.72;15.65;;;4.20;99.90;;;;;;5074259;28;20040;-84
2022/01/13 12:29:26;;;;;;;43.75;14.00;;;4.30;99.90;;;;;;5074882;28;20369;-83
2022/01/13 12:31:58;;;;;;;38.38;14.00;;;4.30;99.90;;;;;;5074774;28;20040;-84
2022/01/13 12:34:45;;;;;;;54.80;15.52;;;4.30;99.90;;;;;;5092585;28;20032;-84
2022/01/13 12:37:11;;;;;;;35.28;13.77;;;4.20;99.90;;;;;;5076901;28;20036;-83
2022/01/13 12:39:40;;;;;;;39.00;14.10;;;4.20;99.90;;;;;;5078587;28;20093;-83
2022/01/13 12:42:16;;;;;;;41.92;14.63;;;4.20;99.90;;;;;;5078270;28;20032;-83
2022/01/13 12:47:27;;;;;;;49.78;15.75;;;4.20;99.90;;;;;;5095701;28;20047;-83
2022/01/13 12:49:53;;;;;;;37.85;14.80;;;4.20;99.90;;;;;;5078357;28;20028;-84
2022/01/13 12:52:21;;;;;;;49.63;15.05;;;4.20;99.90;;;;;;5078053;28;20089;-84
2022/01/13 12:54:47;;;;;;;37.55;14.80;;;4.20;99.90;;;;;;5060271;28;20542;-83
2022/01/13 12:57:13;;;;;;;67.88;17.00;;;4.20;99.90;;;;;;5065604;28;20066;-85
2022/01/13 12:59:39;;;;;;;62.42;16.65;;;4.20;99.90;;;;;;5102941;28;20099;-84
2022/01/13 13:02:04;;;;;;;50.55;17.90;;;4.20;99.90;;;;;;5071304;28;20077;-83
2022/01/13 13:04:35;;;;;;;70.07;18.40;;;4.30;99.90;;;;;;5078231;28;20040;-86
2022/01/13 13:07:01;;;;;;;52.97;17.48;;;4.20;99.90;;;;;;5097893;28;20043;-84